Time;durP1;ratioP1;P1;durP2;ratioP2;P2;SDS_P1;SDS_P2;PMS_P1;PMS_P2;Temp;Humidity;BMP_temperature;BMP_pressure;BME280_temperature;BME280_humidity;BME280_pressure;Samples;Min_cycle;Max_cycle;Signal;HPM_P1;HPM_P2
2024/01/26 00:02:04;;;;;;;25.98;23.17;;;;;;;8.72;100.00;102147.03;4979969;28;20022;-65
2024/01/26 00:04:29;;;;;;;30.02;22.70;;;;;;;8.71;100.00;102142.66;5008506;28;20034;-65
2024/01/26 00:06:55;;;;;;;25.83;23.05;;;;;;;8.72;100.00;102144.47;4985505;28;20030;-65
2024/01/26 00:09:21;;;;;;;28.00;22.90;;;;;;;8.73;100.00;102138.47;4970185;28;20105;-65
2024/01/26 00:11:46;;;;;;;24.75;22.10;;;;;;;8.73;100.00;102136.78;4969726;28;20114;-65
2024/01/26 00:14:11;;;;;;;25.17;21.77;;;;;;;8.71;100.00;102130.63;4982087;28;20479;-65
2024/01/26 00:16:37;;;;;;;28.05;22.83;;;;;;;8.73;100.00;102125.56;4983777;28;20030;-65
2024/01/26 00:19:03;;;;;;;26.58;22.23;;;;;;;8.71;100.00;102129.72;4968622;28;20467;-65
2024/01/26 00:21:29;;;;;;;24.08;20.50;;;;;;;8.71;100.00;102133.22;5001018;28;20027;-65
2024/01/26 00:23:55;;;;;;;26.33;20.23;;;;;;;8.74;100.00;102123.06;5001302;28;20048;-65
2024/01/26 00:26:20;;;;;;;22.77;19.70;;;;;;;8.73;100.00;102117.81;5001797;28;20057;-65
2024/01/26 00:28:45;;;;;;;23.85;19.42;;;;;;;8.72;100.00;102122.09;5001136;28;20034;-65
2024/01/26 00:31:18;;;;;;;22.80;18.48;;;;;;;8.72;100.00;102124.69;5007233;28;20460;-65
2024/01/26 00:33:44;;;;;;;22.42;20.02;;;;;;;8.73;100.00;102126.47;5007683;28;20029;-65
2024/01/26 00:36:11;;;;;;;21.58;19.00;;;;;;;8.76;100.00;102121.47;5000505;28;20062;-65
2024/01/26 00:38:36;;;;;;;21.13;17.92;;;;;;;8.75;100.00;102123.97;4987761;28;20478;-65
2024/01/26 00:41:02;;;;;;;20.92;18.73;;;;;;;8.75;100.00;102119.69;4984488;28;20022;-65
2024/01/26 00:43:27;;;;;;;23.67;19.10;;;;;;;8.75;100.00;102114.53;4995044;28;20526;-65
2024/01/26 00:45:53;;;;;;;23.83;19.52;;;;;;;8.76;100.00;102112.84;5006947;28;20457;-65
2024/01/26 00:48:19;;;;;;;21.90;17.98;;;;;;;8.76;100.00;102123.19;4993128;28;20038;-65
2024/01/26 00:50:46;;;;;;;23.35;18.95;;;;;;;8.79;100.00;102125.94;4996373;28;20473;-65
2024/01/26 00:53:11;;;;;;;19.67;17.67;;;;;;;8.82;100.00;102114.88;4994718;28;20037;-65
2024/01/26 00:55:36;;;;;;;20.20;18.20;;;;;;;8.83;100.00;102109.78;5008127;28;20461;-65
2024/01/26 00:58:02;;;;;;;20.30;17.55;;;;;;;8.78;100.00;102103.47;4996664;28;20076;-65
2024/01/26 01:00:27;;;;;;;20.38;18.10;;;;;;;8.78;100.00;102098.28;4993381;28;20047;-65
2024/01/26 01:02:56;;;;;;;18.67;16.75;;;;;;;8.78;100.00;102113.78;5007866;28;20096;-65
2024/01/26 01:05:21;;;;;;;19.73;17.60;;;;;;;8.77;100.00;102112.03;4994273;28;20036;-65
2024/01/26 01:07:47;;;;;;;21.38;17.63;;;;;;;8.76;100.00;102102.50;5007343;28;20502;-65
2024/01/26 01:10:15;;;;;;;20.50;16.35;;;;;;;8.78;100.00;102103.47;5000736;28;20142;-65
2024/01/26 01:12:42;;;;;;;16.58;14.93;;;;;;;8.83;100.00;102101.16;5000878;28;20034;-65
2024/01/26 01:15:11;;;;;;;16.50;14.82;;;;;;;8.79;100.00;102100.09;4976011;28;20022;-65
2024/01/26 01:17:41;;;;;;;15.77;13.45;;;;;;;8.80;100.00;102107.03;4988505;28;20022;-65
2024/01/26 01:20:08;;;;;;;15.27;13.77;;;;;;;8.84;100.00;102108.09;5007354;28;20026;-65
2024/01/26 01:22:41;;;;;;;15.95;13.70;;;;;;;8.82;100.00;102096.78;4992070;28;20399;-65
2024/01/26 01:25:07;;;;;;;14.30;12.82;;;;;;;8.81;100.00;102087.25;4997339;28;20018;-65
2024/01/26 01:27:35;;;;;;;14.02;12.63;;;;;;;8.86;100.00;102085.84;4990573;28;20022;-65
2024/01/26 01:30:05;;;;;;;12.93;11.65;;;;;;;8.82;100.00;102078.69;4987371;28;20030;-65
2024/01/26 01:32:30;;;;;;;12.90;11.60;;;;;;;8.83;100.00;102071.00;4974190;28;20022;-65
2024/01/26 01:34:56;;;;;;;12.88;11.60;;;;;;;8.84;100.00;102072.81;4987611;28;20018;-65
2024/01/26 01:37:21;;;;;;;12.52;11.27;;;;;;;8.84;100.00;102080.56;4970505;28;20026;-65
2024/01/26 01:39:50;;;;;;;11.18;10.18;;;;;;;8.84;100.00;102072.81;4968089;28;20495;-65
2024/01/26 01:42:15;;;;;;;11.05;9.90;;;;;;;8.88;100.00;102077.38;4972463;28;20026;-65
2024/01/26 01:44:45;;;;;;;11.27;10.10;;;;;;;8.86;100.00;102076.41;4975279;28;20081;-65
2024/01/26 01:47:13;;;;;;;9.55;8.65;;;;;;;8.89;100.00;102075.66;4967823;28;20487;-65
2024/01/26 01:49:39;;;;;;;10.27;9.23;;;;;;;8.83;100.00;102065.84;4967955;28;20097;-65
2024/01/26 01:52:09;;;;;;;9.13;8.32;;;;;;;8.87;100.00;102061.75;4968219;28;20515;-65
2024/01/26 01:54:36;;;;;;;9.93;8.95;;;;;;;8.88;100.00;102058.38;4981481;28;20525;-65
2024/01/26 01:57:02;;;;;;;10.02;9.02;;;;;;;8.85;100.00;102055.63;4982967;28;20117;-65
2024/01/26 01:59:28;;;;;;;9.88;8.98;;;;;;;8.84;100.00;102062.47;4982231;28;20113;-65
2024/01/26 02:01:53;;;;;;;8.60;7.78;;;;;;;8.85;100.00;102056.50;4975443;28;20754;-65
2024/01/26 02:04:19;;;;;;;8.65;7.85;;;;;;;8.89;100.00;102050.72;4982285;28;20038;-65
2024/01/26 02:06:54;;;;;;;7.93;7.18;;;;;;;8.87;100.00;102057.47;4986956;28;20412;-65
2024/01/26 02:09:19;;;;;;;7.72;7.03;;;;;;;8.92;100.00;102049.13;4983801;28;20445;-65
2024/01/26 02:11:44;;;;;;;7.68;6.80;;;;;;;8.91;100.00;102048.22;4971521;28;20035;-65
2024/01/26 02:14:10;;;;;;;8.25;6.43;;;;;;;8.88;100.00;102046.34;4970686;28;20391;-65
2024/01/26 02:16:35;;;;;;;9.32;5.97;;;;;;;8.88;100.00;102035.13;4976903;28;20026;-65
2024/01/26 02:19:01;;;;;;;6.85;6.25;;;;;;;8.88;100.00;102033.44;4978796;28;20105;-65
2024/01/26 02:21:26;;;;;;;7.45;6.80;;;;;;;8.89;100.00;102024.84;4971300;28;20027;-65
2024/01/26 02:23:51;;;;;;;6.97;6.28;;;;;;;8.95;100.00;102033.78;4972063;28;20097;-65
2024/01/26 02:26:17;;;;;;;7.20;6.18;;;;;;;8.97;100.00;102021.81;4973114;28;20019;-65
2024/01/26 02:28:42;;;;;;;6.25;5.45;;;;;;;8.94;100.00;102012.19;4972033;28;20109;-65
2024/01/26 02:31:07;;;;;;;6.28;5.75;;;;;;;8.99;100.00;102009.88;4971568;28;20027;-65
2024/01/26 02:33:32;;;;;;;6.15;5.57;;;;;;;8.96;100.00;102010.59;4971821;28;20035;-65
2024/01/26 02:35:58;;;;;;;5.60;5.07;;;;;;;8.94;100.00;102016.50;4972575;28;20635;-65
2024/01/26 02:38:23;;;;;;;6.25;5.50;;;;;;;8.88;100.00;102002.41;4983575;28;20034;-65
2024/01/26 02:40:48;;;;;;;7.72;5.35;;;;;;;8.87;100.00;102003.19;4989294;28;20029;-65
2024/01/26 02:43:14;;;;;;;8.65;5.78;;;;;;;8.93;100.00;101999.19;4978070;28;20487;-65
2024/01/26 02:45:42;;;;;;;5.18;4.68;;;;;;;8.96;100.00;101986.44;4971466;28;20027;-65
2024/01/26 02:48:07;;;;;;;5.32;4.82;;;;;;;8.98;100.00;101998.63;4970765;28;20051;-65
2024/01/26 02:50:33;;;;;;;5.03;4.53;;;;;;;8.97;100.00;101993.38;4971270;28;20201;-65
2024/01/26 02:52:58;;;;;;;5.22;4.82;;;;;;;8.96;100.00;101991.63;4971518;28;20022;-65
2024/01/26 02:55:23;;;;;;;5.57;4.93;;;;;;;8.94;100.00;101991.50;4996241;28;20751;-65
2024/01/26 02:57:49;;;;;;;5.28;4.60;;;;;;;8.93;100.00;101988.84;4989698;28;20029;-65
2024/01/26 03:00:15;;;;;;;5.20;4.68;;;;;;;8.91;100.00;101985.25;4970679;28;20478;-65
2024/01/26 03:02:40;;;;;;;7.20;4.47;;;;;;;8.94;100.00;101975.13;4980353;28;20022;-65
2024/01/26 03:05:05;;;;;;;4.63;4.22;;;;;;;8.94;100.00;101972.53;4977048;28;20418;-65
2024/01/26 03:07:31;;;;;;;5.32;4.63;;;;;;;8.93;100.00;101970.75;4999848;28;20500;-65
2024/01/26 03:09:56;;;;;;;6.93;5.32;;;;;;;8.92;100.00;101963.81;5007718;28;20026;-65
2024/01/26 03:12:22;;;;;;;4.95;4.45;;;;;;;8.92;100.00;101954.34;5008792;28;20032;-65
2024/01/26 03:14:47;;;;;;;5.03;4.45;;;;;;;8.93;100.00;101974.22;5008972;28;20026;-65
2024/01/26 03:17:12;;;;;;;6.03;4.43;;;;;;;8.94;100.00;101967.38;5009104;28;20088;-65
2024/01/26 03:19:37;;;;;;;8.60;4.30;;;;;;;8.98;100.00;101958.97;4995013;28;20089;-65
2024/01/26 03:22:03;;;;;;;6.32;4.88;;;;;;;9.01;100.00;101936.75;5009214;28;20022;-65
2024/01/26 03:24:28;;;;;;;4.18;3.78;;;;;;;9.02;100.00;101929.91;5008010;28;20029;-65
2024/01/26 03:26:54;;;;;;;6.43;4.22;;;;;;;9.05;100.00;101922.31;4998182;28;20062;-65
2024/01/26 03:29:19;;;;;;;6.10;4.15;;;;;;;9.09;100.00;101920.78;4988621;28;20018;-65
2024/01/26 03:31:45;;;;;;;5.13;4.57;;;;;;;9.08;100.00;101924.19;5000565;28;20030;-65
2024/01/26 03:34:10;;;;;;;4.50;4.10;;;;;;;9.08;100.00;101922.50;5003991;28;20540;-65
2024/01/26 03:36:35;;;;;;;4.53;4.13;;;;;;;9.07;100.00;101925.88;5000108;28;20104;-65
2024/01/26 03:39:00;;;;;;;4.95;4.43;;;;;;;9.06;100.00;101918.03;5007997;28;20026;-65
2024/01/26 03:41:26;;;;;;;5.40;4.35;;;;;;;9.05;100.00;101927.47;4997214;28;20027;-65
2024/01/26 03:43:52;;;;;;;6.75;4.40;;;;;;;9.02;100.00;101916.97;5005802;28;20486;-65
2024/01/26 03:46:18;;;;;;;4.95;4.32;;;;;;;9.01;100.00;101923.81;4994752;28;20051;-65
2024/01/26 03:48:43;;;;;;;5.25;4.68;;;;;;;9.05;100.00;101924.88;4987222;28;20533;-65
2024/01/26 03:51:08;;;;;;;6.68;5.32;;;;;;;9.15;100.00;101917.66;4988595;28;20027;-65
2024/01/26 03:53:34;;;;;;;5.15;4.68;;;;;;;9.10;100.00;101909.66;4993855;28;20276;-65
2024/01/26 03:55:59;;;;;;;5.20;4.70;;;;;;;9.07;100.00;101910.34;5008091;28;20032;-65
2024/01/26 03:58:24;;;;;;;5.95;5.35;;;;;;;9.06;100.00;101908.59;5006079;28;20036;-65
2024/01/26 04:00:49;;;;;;;5.65;4.97;;;;;;;9.09;100.00;101908.75;4988509;28;20665;-65
2024/01/26 04:03:16;;;;;;;7.10;5.72;;;;;;;9.09;100.00;101898.41;4975726;28;20054;-65
2024/01/26 04:05:41;;;;;;;6.25;5.65;;;;;;;9.10;100.00;101900.16;4989336;28;20026;-65
2024/01/26 04:08:06;;;;;;;6.70;6.07;;;;;;;9.15;100.00;101887.53;4986625;28;20107;-65
2024/01/26 04:10:32;;;;;;;7.65;6.07;;;;;;;9.20;100.00;101890.34;4986421;28;20034;-65
2024/01/26 04:12:57;;;;;;;8.98;6.72;;;;;;;9.24;100.00;101892.31;5004930;28;20546;-65
2024/01/26 04:15:23;;;;;;;7.13;6.22;;;;;;;9.21;100.00;101886.97;4996356;28;20068;-65
2024/01/26 04:17:48;;;;;;;8.13;6.68;;;;;;;9.26;100.00;101885.53;5005274;28;20032;-65
2024/01/26 04:20:14;;;;;;;8.65;7.85;;;;;;;9.18;100.00;101872.16;4978952;28;20026;-65
2024/01/26 04:22:39;;;;;;;8.13;6.65;;;;;;;9.17;100.00;101864.31;4969915;28;20391;-65
2024/01/26 04:25:05;;;;;;;8.18;7.10;;;;;;;9.21;100.00;101861.09;4969064;28;20023;-65
2024/01/26 04:27:31;;;;;;;9.43;8.23;;;;;;;9.24;100.00;101848.31;4968896;28;20817;-65
2024/01/26 04:29:57;;;;;;;10.27;8.00;;;;;;;9.29;100.00;101833.94;4969510;28;20426;-65
2024/01/26 04:32:22;;;;;;;8.98;8.05;;;;;;;9.32;100.00;101833.19;4971438;28;20027;-65
2024/01/26 04:34:47;;;;;;;8.82;7.50;;;;;;;9.29;100.00;101817.53;4997718;28;20476;-65
2024/01/26 04:37:12;;;;;;;8.32;7.47;;;;;;;9.28;100.00;101834.75;5006582;28;20037;-65
2024/01/26 04:39:38;;;;;;;8.80;7.93;;;;;;;9.25;100.00;101824.22;4998202;28;20026;-65
2024/01/26 04:42:03;;;;;;;11.32;8.65;;;;;;;9.23;100.00;101825.84;4990431;28;20465;-65
2024/01/26 04:44:28;;;;;;;8.95;7.80;;;;;;;9.23;100.00;101818.97;4998086;28;20033;-65
2024/01/26 04:46:55;;;;;;;8.63;7.75;;;;;;;9.22;100.00;101813.72;4999780;28;20047;-65
2024/01/26 04:49:21;;;;;;;8.45;7.65;;;;;;;9.21;100.00;101811.97;4997937;28;20049;-65
2024/01/26 04:51:47;;;;;;;8.73;7.93;;;;;;;9.21;100.00;101818.00;5002649;28;20054;-65
2024/01/26 04:54:12;;;;;;;8.85;7.95;;;;;;;9.19;100.00;101826.50;4997475;28;20054;-65
2024/01/26 04:56:37;;;;;;;9.55;8.07;;;;;;;9.19;100.00;101826.50;5006834;28;20026;-65
2024/01/26 04:59:03;;;;;;;9.35;7.85;;;;;;;9.19;100.00;101832.53;5000376;28;20057;-65
2024/01/26 05:01:28;;;;;;;9.50;8.07;;;;;;;9.17;100.00;101815.19;4986023;28;20065;-65
2024/01/26 05:03:54;;;;;;;8.55;7.70;;;;;;;9.13;100.00;101817.63;4987726;28;20153;-65
2024/01/26 05:06:19;;;;;;;8.00;7.10;;;;;;;9.15;100.00;101814.22;5000420;28;20096;-65
2024/01/26 05:08:44;;;;;;;9.43;8.52;;;;;;;9.12;100.00;101818.41;4986923;28;20082;-65
2024/01/26 05:11:10;;;;;;;10.48;8.18;;;;;;;9.13;100.00;101814.13;4973819;28;20031;-65
2024/01/26 05:13:35;;;;;;;8.40;7.70;;;;;;;9.10;100.00;101812.25;4968382;28;20372;-65
2024/01/26 05:16:00;;;;;;;9.00;8.07;;;;;;;9.08;100.00;101808.72;4981183;28;20037;-65
2024/01/26 05:18:27;;;;;;;8.77;7.90;;;;;;;9.11;100.00;101806.28;4968306;28;20275;-65
2024/01/26 05:20:52;;;;;;;9.63;7.97;;;;;;;9.12;100.00;101800.31;4967664;28;20031;-65
2024/01/26 05:23:17;;;;;;;8.38;7.07;;;;;;;9.12;100.00;101787.38;4982987;28;20053;-65
2024/01/26 05:25:45;;;;;;;8.63;7.38;;;;;;;9.09;100.00;101779.47;5006586;28;20512;-65
2024/01/26 05:28:10;;;;;;;8.57;7.65;;;;;;;9.10;100.00;101786.41;5006496;28;20466;-65
2024/01/26 05:30:35;;;;;;;7.65;6.93;;;;;;;9.15;100.00;101778.00;5006022;28;20463;-65
2024/01/26 05:33:01;;;;;;;8.98;7.00;;;;;;;9.15;100.00;101773.72;4998180;28;20105;-65
2024/01/26 05:35:26;;;;;;;8.30;7.50;;;;;;;9.12;100.00;101774.44;4988003;28;20042;-65
2024/01/26 05:37:51;;;;;;;10.73;7.53;;;;;;;9.10;100.00;101776.06;4988433;28;20198;-65
2024/01/26 05:40:16;;;;;;;9.50;7.80;;;;;;;9.05;100.00;101767.16;4986798;28;20033;-65
2024/01/26 05:42:42;;;;;;;8.57;7.78;;;;;;;9.06;100.00;101758.63;4978249;28;20053;-65
2024/01/26 05:45:08;;;;;;;9.52;8.20;;;;;;;9.07;100.00;101744.88;4974990;28;20031;-65
2024/01/26 05:47:33;;;;;;;8.85;7.97;;;;;;;9.00;100.00;101745.34;4978725;28;20054;-65
2024/01/26 05:49:59;;;;;;;8.88;8.07;;;;;;;9.03;100.00;101748.09;4979560;28;20035;-65
2024/01/26 05:52:24;;;;;;;11.38;8.43;;;;;;;8.96;100.00;101746.00;4983422;28;20030;-65
2024/01/26 05:54:49;;;;;;;8.65;7.85;;;;;;;8.91;100.00;101748.34;4995700;28;20458;-65
2024/01/26 05:57:15;;;;;;;9.80;8.77;;;;;;;8.96;100.00;101740.84;5006092;28;20462;-65
2024/01/26 05:59:42;;;;;;;9.65;8.75;;;;;;;8.95;100.00;101742.53;5000293;28;20109;-65
2024/01/26 06:02:07;;;;;;;12.85;9.35;;;;;;;8.88;100.00;101737.84;4975268;28;20082;-65
2024/01/26 06:04:32;;;;;;;8.90;7.78;;;;;;;8.92;100.00;101747.53;4969915;28;20035;-65
2024/01/26 06:06:59;;;;;;;10.68;8.82;;;;;;;8.86;100.00;101740.34;4987715;28;20479;-65
2024/01/26 06:09:25;;;;;;;10.85;9.75;;;;;;;8.79;100.00;101727.00;4976565;28;20463;-65
2024/01/26 06:11:50;;;;;;;11.82;9.40;;;;;;;8.80;100.00;101737.41;4980019;28;20032;-65
2024/01/26 06:14:15;;;;;;;12.43;9.60;;;;;;;8.76;100.00;101733.78;4978359;28;20027;-65
2024/01/26 06:16:41;;;;;;;10.80;9.73;;;;;;;8.78;100.00;101736.44;4976274;28;20085;-65
2024/01/26 06:19:06;;;;;;;12.00;10.35;;;;;;;8.80;100.00;101728.78;4971201;28;20041;-65
2024/01/26 06:21:31;;;;;;;12.27;11.07;;;;;;;8.79;100.00;101729.59;4985950;28;20053;-65
2024/01/26 06:23:57;;;;;;;11.32;10.02;;;;;;;8.74;100.00;101730.22;4971122;28;20118;-65
2024/01/26 06:26:23;;;;;;;12.07;10.88;;;;;;;8.77;100.00;101719.19;4981355;28;20030;-65
2024/01/26 06:28:49;;;;;;;11.32;10.18;;;;;;;8.87;100.00;101698.16;4982426;28;20061;-65
2024/01/26 06:31:14;;;;;;;14.45;11.15;;;;;;;8.79;100.00;101714.09;4988217;28;20456;-65
2024/01/26 06:33:39;;;;;;;11.85;10.63;;;;;;;8.80;100.00;101711.56;4995212;28;20429;-65
2024/01/26 06:36:04;;;;;;;12.30;11.13;;;;;;;8.79;100.00;101702.06;4996602;28;20026;-65
2024/01/26 06:38:30;;;;;;;12.70;11.50;;;;;;;8.77;100.00;101707.16;4996972;28;20522;-65
2024/01/26 06:40:57;;;;;;;12.38;11.10;;;;;;;8.75;100.00;101723.38;5002902;28;20472;-65
2024/01/26 06:43:23;;;;;;;13.95;12.38;;;;;;;8.77;100.00;101730.41;4999836;28;20034;-65
2024/01/26 06:45:48;;;;;;;13.45;11.63;;;;;;;8.80;100.00;101723.59;4996231;28;20040;-65
2024/01/26 06:48:13;;;;;;;13.57;11.70;;;;;;;8.80;100.00;101726.19;5005388;28;20503;-65
2024/01/26 06:50:39;;;;;;;12.40;11.20;;;;;;;8.78;100.00;101720.94;4981141;28;20394;-65
2024/01/26 06:53:04;;;;;;;13.77;11.60;;;;;;;8.80;100.00;101724.50;4987759;28;20521;-65
2024/01/26 06:55:29;;;;;;;13.60;10.77;;;;;;;8.80;100.00;101724.50;5007502;28;20064;-65
2024/01/26 06:57:55;;;;;;;11.45;10.30;;;;;;;8.81;100.00;101707.31;4998949;28;20060;-65
2024/01/26 07:00:20;;;;;;;13.10;11.63;;;;;;;8.87;100.00;101707.63;4988644;28;20746;-65
2024/01/26 07:02:45;;;;;;;11.93;10.73;;;;;;;8.86;100.00;101706.75;4978795;28;20026;-65
2024/01/26 07:05:11;;;;;;;12.40;11.15;;;;;;;8.89;100.00;101706.00;4987002;28;20024;-65
2024/01/26 07:07:36;;;;;;;12.15;10.85;;;;;;;8.87;100.00;101705.94;4987436;28;20053;-65
2024/01/26 07:10:01;;;;;;;13.80;11.43;;;;;;;8.89;100.00;101703.41;4998337;28;20076;-65
2024/01/26 07:12:27;;;;;;;14.10;10.93;;;;;;;8.93;100.00;101705.38;4999204;28;20382;-65
2024/01/26 07:14:52;;;;;;;11.82;10.57;;;;;;;8.95;100.00;101693.41;4985428;28;20022;-65
2024/01/26 07:17:17;;;;;;;12.00;10.38;;;;;;;8.96;100.00;101689.16;4997618;28;20462;-64
2024/01/26 07:19:42;;;;;;;12.48;11.18;;;;;;;9.00;100.00;101688.47;4990437;28;20026;-64
2024/01/26 07:22:08;;;;;;;11.52;10.43;;;;;;;9.05;100.00;101687.00;4984244;28;20455;-64
2024/01/26 07:24:33;;;;;;;12.82;10.73;;;;;;;9.08;100.00;101684.59;4993492;28;20115;-64
2024/01/26 07:26:58;;;;;;;10.32;9.32;;;;;;;9.13;100.00;101684.84;4989335;28;20053;-65
2024/01/26 07:29:23;;;;;;;11.68;10.52;;;;;;;9.15;100.00;101679.75;4989321;28;20039;-64
2024/01/26 07:31:49;;;;;;;10.73;9.43;;;;;;;9.12;100.00;101686.53;4996278;28;20030;-65
2024/01/26 07:34:15;;;;;;;10.50;9.23;;;;;;;9.16;100.00;101691.84;4992929;28;20026;-64
2024/01/26 07:36:40;;;;;;;10.90;9.32;;;;;;;9.13;100.00;101685.72;4990653;28;20108;-65
2024/01/26 07:39:05;;;;;;;11.20;10.10;;;;;;;9.17;100.00;101671.25;4984455;28;20468;-64
2024/01/26 07:41:31;;;;;;;10.60;9.50;;;;;;;9.19;100.00;101667.03;4994229;28;20709;-65
2024/01/26 07:43:56;;;;;;;11.55;10.45;;;;;;;9.22;100.00;101676.66;4993214;28;20632;-64
2024/01/26 07:46:22;;;;;;;10.57;9.55;;;;;;;9.26;100.00;101673.44;4986527;28;20043;-64
2024/01/26 07:48:47;;;;;;;10.82;9.68;;;;;;;9.27;100.00;101685.53;4993766;28;20117;-65
2024/01/26 07:51:12;;;;;;;11.38;10.13;;;;;;;9.27;100.00;101690.72;4969156;28;20112;-64
2024/01/26 07:53:38;;;;;;;11.85;10.20;;;;;;;9.27;100.00;101701.06;4984639;28;20486;-64
2024/01/26 07:56:03;;;;;;;14.40;10.50;;;;;;;9.27;100.00;101711.41;5005138;28;20591;-64
2024/01/26 07:58:28;;;;;;;12.40;11.13;;;;;;;9.30;100.00;101719.31;5006016;28;20030;-64
2024/01/26 08:00:54;;;;;;;10.00;9.10;;;;;;;9.34;100.00;101723.84;4997234;28;20034;-65
2024/01/26 08:03:19;;;;;;;11.55;10.45;;;;;;;9.34;100.00;101722.94;5000224;28;20034;-65
2024/01/26 08:05:44;;;;;;;12.35;11.05;;;;;;;9.33;100.00;101727.25;5003958;28;20437;-64
2024/01/26 08:08:09;;;;;;;14.25;11.23;;;;;;;9.41;100.00;101735.38;5002662;28;20027;-64
2024/01/26 08:10:35;;;;;;;12.02;10.93;;;;;;;9.39;100.00;101731.81;5003574;28;20034;-65
2024/01/26 08:13:00;;;;;;;11.52;10.27;;;;;;;9.41;100.00;101730.22;5004923;28;20044;-65
2024/01/26 08:15:26;;;;;;;11.10;10.10;;;;;;;9.46;100.00;101738.22;4995945;28;20034;-64
2024/01/26 08:17:51;;;;;;;10.55;9.57;;;;;;;9.47;100.00;101740.00;4998891;28;20422;-64
2024/01/26 08:20:17;;;;;;;11.18;10.07;;;;;;;9.47;100.00;101734.81;4996760;28;20080;-65
2024/01/26 08:22:43;;;;;;;10.60;9.50;;;;;;;9.53;100.00;101734.25;5002691;28;20462;-64
2024/01/26 08:25:09;;;;;;;11.15;9.70;;;;;;;9.53;100.00;101735.13;4997168;28;20551;-64
2024/01/26 08:27:35;;;;;;;10.63;9.52;;;;;;;9.56;100.00;101732.69;5002532;28;20046;-65
2024/01/26 08:30:01;;;;;;;12.05;9.82;;;;;;;9.55;100.00;101728.31;4987464;28;20069;-64
2024/01/26 08:32:26;;;;;;;10.02;8.88;;;;;;;9.58;100.00;101731.09;4990989;28;20037;-65
2024/01/26 08:34:51;;;;;;;10.45;9.45;;;;;;;9.61;100.00;101744.16;4991256;28;20041;-65
2024/01/26 08:37:17;;;;;;;11.02;8.65;;;;;;;9.63;100.00;101735.56;4993789;28;20406;-65
2024/01/26 08:39:45;;;;;;;8.88;8.05;;;;;;;9.62;100.00;101747.66;4986490;28;20064;-64
2024/01/26 08:42:11;;;;;;;9.55;8.40;;;;;;;9.70;100.00;101742.84;4991698;28;20059;-65
2024/01/26 08:44:37;;;;;;;9.25;8.07;;;;;;;9.71;100.00;101744.63;4981391;28;20408;-65
2024/01/26 08:47:02;;;;;;;8.38;7.60;;;;;;;9.70;100.00;101737.66;4983450;28;20050;-65
2024/01/26 08:49:27;;;;;;;7.15;6.47;;;;;;;9.75;100.00;101740.50;4971700;28;20046;-65
2024/01/26 08:51:53;;;;;;;7.47;6.57;;;;;;;9.74;100.00;101734.44;4981641;28;20575;-65
2024/01/26 08:54:18;;;;;;;8.02;7.00;;;;;;;9.74;100.00;101744.78;4987920;28;20030;-65
2024/01/26 08:56:45;;;;;;;8.95;8.05;;;;;;;9.78;100.00;101738.97;4981084;28;20060;-65
2024/01/26 08:59:10;;;;;;;8.98;8.07;;;;;;;9.78;100.00;101751.00;4985262;28;20034;-65
2024/01/26 09:01:38;;;;;;;9.45;8.55;;;;;;;9.79;100.00;101748.50;4996037;28;20033;-65
2024/01/26 09:04:07;;;;;;;9.90;8.82;;;;;;;9.77;100.00;101750.09;4993787;28;20184;-65
2024/01/26 09:06:33;;;;;;;10.15;9.18;;;;;;;9.77;100.00;101760.47;5001694;28;20553;-65
2024/01/26 09:08:58;;;;;;;10.48;9.40;;;;;;;9.77;100.00;101744.06;4994918;28;20108;-65
2024/01/26 09:11:24;;;;;;;10.35;9.23;;;;;;;9.76;100.00;101753.53;4991541;28;20035;-65
2024/01/26 09:13:49;;;;;;;10.48;9.50;;;;;;;9.76;100.00;101761.28;5003962;28;20026;-65
2024/01/26 09:16:14;;;;;;;11.45;10.30;;;;;;;9.74;100.00;101760.31;4988607;28;20037;-65
2024/01/26 09:18:39;;;;;;;11.05;10.05;;;;;;;9.75;100.00;101792.28;4994902;28;20448;-65
2024/01/26 09:21:05;;;;;;;10.38;9.35;;;;;;;9.70;100.00;101815.31;4986860;28;20617;-65
2024/01/26 09:23:30;;;;;;;11.38;10.30;;;;;;;9.71;100.00;101791.22;5004013;28;20032;-65
2024/01/26 09:25:55;;;;;;;11.35;9.32;;;;;;;9.70;100.00;101818.81;5003980;28;20096;-65
2024/01/26 09:28:21;;;;;;;8.23;6.90;;;;;;;9.63;100.00;101808.03;5005580;28;20028;-65
2024/01/26 09:30:47;;;;;;;11.25;6.68;;;;;;;9.52;100.00;101829.09;5005560;28;20310;-65
2024/01/26 09:33:12;;;;;;;7.07;4.82;;;;;;;9.47;100.00;101822.78;5006301;28;20041;-65
2024/01/26 09:35:38;;;;;;;7.80;4.38;;;;;;;9.47;100.00;101828.84;5002299;28;20034;-65
2024/01/26 09:38:03;;;;;;;8.50;3.83;;;;;;;9.46;100.00;101815.84;4997079;28;20088;-65
2024/01/26 09:40:29;;;;;;;7.03;2.70;;;;;;;9.48;100.00;101830.63;5004989;28;20026;-65
2024/01/26 09:42:54;;;;;;;8.50;2.63;;;;;;;9.43;100.00;101826.00;5006705;28;20057;-65
2024/01/26 09:45:22;;;;;;;10.13;2.65;;;;;;;9.41;100.00;101836.28;5002653;28;20105;-65
2024/01/26 09:47:51;;;;;;;4.65;2.47;;;;;;;9.39;100.00;101844.78;4997014;28;20058;-65
2024/01/26 09:50:19;;;;;;;6.75;1.98;;;;;;;9.40;100.00;101867.25;4988947;28;20038;-64
2024/01/26 09:52:45;;;;;;;7.85;2.53;;;;;;;9.39;100.00;101891.34;4986915;28;20030;-65
2024/01/26 09:55:12;;;;;;;4.40;2.10;;;;;;;9.35;100.00;101911.84;4990219;28;20048;-65
2024/01/26 09:57:37;;;;;;;7.00;1.42;;;;;;;9.24;100.00;101944.03;4990624;28;20038;-65
2024/01/26 10:00:04;;;;;;;6.47;1.50;;;;;;;9.10;100.00;101941.53;4997337;28;20034;-65
2024/01/26 10:02:29;;;;;;;5.50;1.58;;;;;;;9.01;100.00;101960.03;5006136;28;20084;-65
2024/01/26 10:04:56;;;;;;;5.78;1.52;;;;;;;8.97;100.00;101967.53;4976024;28;20491;-65
2024/01/26 10:07:21;;;;;;;5.40;1.15;;;;;;;8.92;100.00;101968.97;4967782;28;20027;-65
2024/01/26 10:09:46;;;;;;;5.75;1.35;;;;;;;8.90;100.00;101989.56;4968142;28;20037;-65
2024/01/26 10:12:13;;;;;;;8.80;1.63;;;;;;;8.88;100.00;101989.50;4968000;28;20070;-65
2024/01/26 10:14:38;;;;;;;7.70;1.23;;;;;;;8.89;100.00;101988.66;4967868;28;20034;-65
2024/01/26 10:17:04;;;;;;;6.30;1.25;;;;;;;8.89;100.00;102006.75;4968125;28;20370;-65
2024/01/26 10:19:30;;;;;;;4.95;1.45;;;;;;;8.87;100.00;101990.28;4970410;28;20058;-65
2024/01/26 10:21:56;;;;;;;8.52;1.67;;;;;;;8.85;100.00;102007.38;4981528;28;20109;-65
2024/01/26 10:24:23;;;;;;;8.60;2.00;;;;;;;8.83;100.00;102000.34;4993428;28;20022;-65
2024/01/26 10:26:53;;;;;;;7.65;1.42;;;;;;;8.79;100.00;102016.47;5000044;28;20022;-65
2024/01/26 10:29:19;;;;;;;8.65;2.13;;;;;;;8.78;100.00;102025.91;4986334;28;20106;-65
2024/01/26 10:31:46;;;;;;;7.78;1.60;;;;;;;8.79;100.00;102026.81;4976702;28;20456;-65
2024/01/26 10:34:13;;;;;;;10.35;1.80;;;;;;;8.75;100.00;102030.91;4978102;28;20026;-65
2024/01/26 10:36:43;;;;;;;9.38;2.00;;;;;;;8.74;100.00;102044.66;4980635;28;20030;-65
2024/01/26 10:39:28;;;;;;;10.48;1.70;;;;;;;8.72;100.00;102047.16;4987409;28;20404;-65
2024/01/26 10:42:00;;;;;;;9.85;1.92;;;;;;;8.71;100.00;102049.63;4994158;28;20034;-65
2024/01/26 10:44:26;;;;;;;9.30;2.17;;;;;;;8.74;100.00;102055.00;4992292;28;20030;-65
2024/01/26 10:46:53;;;;;;;10.50;2.28;;;;;;;8.83;100.00;102067.56;4985950;28;20121;-65
2024/01/26 10:49:20;;;;;;;8.93;1.85;;;;;;;8.90;100.00;102067.13;4997841;28;20071;-65
2024/01/26 10:51:47;;;;;;;14.18;2.60;;;;;;;8.97;100.00;102082.19;4981787;28;20029;-65
2024/01/26 10:54:13;;;;;;;8.02;2.70;;;;;;;9.00;100.00;102084.06;4994349;28;20024;-65
2024/01/26 10:56:39;;;;;;;10.88;2.10;;;;;;;8.97;100.00;102095.13;5008567;28;20026;-65
2024/01/26 10:59:10;;;;;;;9.63;2.33;;;;;;;8.95;100.00;102101.00;4978250;28;20478;-65
2024/01/26 11:01:37;;;;;;;10.88;3.10;;;;;;;8.91;100.00;102110.25;4984152;28;20018;-65
2024/01/26 11:04:03;;;;;;;10.00;1.77;;;;;;;8.83;100.00;102117.53;4981023;28;20546;-65
2024/01/26 11:06:31;;;;;;;7.60;1.80;;;;;;;8.78;100.00;102118.97;4982835;28;20042;-65
2024/01/26 11:09:00;;;;;;;8.77;1.60;;;;;;;8.82;100.00;102133.88;4978663;28;20030;-65
2024/01/26 11:11:33;;;;;;;12.52;3.22;;;;;;;8.86;100.00;102125.50;4982483;28;20103;-65
2024/01/26 11:14:02;;;;;;;6.10;1.75;;;;;;;8.94;100.00;102151.78;4983676;28;20030;-65